createdAt,value
2023-03-08T00:02:59.320Z,95.27
2023-03-08T00:13:03.917Z,95.95
2023-03-08T00:23:06.982Z,95.88
2023-03-08T00:33:11.128Z,95.19
2023-03-08T00:43:14.408Z,95.46
2023-03-08T00:53:19.130Z,95.32
2023-03-08T01:03:22.952Z,94.62
2023-03-08T01:13:28.994Z,95.00
2023-03-08T01:23:32.179Z,94.61
2023-03-08T01:33:37.594Z,95.12
2023-03-08T01:43:45.453Z,95.05
2023-03-08T01:53:50.328Z,95.23
2023-03-08T02:03:53.432Z,94.43
2023-03-08T02:13:58.451Z,95.56
2023-03-08T02:24:07.908Z,94.81
2023-03-08T02:34:11.131Z,96.13
2023-03-08T02:44:15.342Z,96.43
2023-03-08T02:54:18.579Z,97.09
2023-03-08T03:04:23.154Z,97.18
2023-03-08T03:14:28.978Z,97.81
2023-03-08T03:24:36.574Z,97.76
2023-03-08T03:34:41.874Z,98.19
2023-03-08T03:44:47.282Z,97.72
2023-03-08T03:54:55.298Z,97.91
2023-03-08T04:05:01.419Z,98.82
2023-03-08T04:15:11.404Z,98.43
2023-03-08T04:25:16.588Z,98.92
2023-03-08T04:35:26.360Z,99.58
2023-03-08T04:45:32.373Z,99.62
2023-03-08T04:55:39.404Z,99.57
2023-03-08T05:05:48.177Z,99.16
2023-03-08T05:15:51.801Z,100.00
2023-03-08T05:25:58.529Z,99.60
2023-03-08T05:36:01.722Z,100.00
2023-03-08T05:46:08.754Z,99.84
2023-03-08T05:56:18.970Z,100.00
2023-03-08T06:06:45.260Z,100.00
2023-03-08T06:16:49.050Z,100.00
2023-03-08T06:26:56.683Z,100.00
2023-03-08T06:37:00.741Z,100.00
2023-03-08T06:47:05.783Z,100.00
2023-03-08T06:57:08.765Z,100.00
2023-03-08T07:07:13.500Z,100.00
2023-03-08T07:17:16.590Z,100.00
2023-03-08T07:27:46.157Z,100.00
2023-03-08T07:37:49.746Z,100.00
2023-03-08T07:47:55.112Z,100.00
2023-03-08T07:57:58.211Z,100.00
2023-03-08T08:08:03.618Z,100.00
2023-03-08T08:18:08.447Z,100.00
2023-03-08T08:28:12.714Z,100.00
2023-03-08T08:38:16.178Z,100.00
2023-03-08T08:48:21.502Z,100.00
2023-03-08T08:58:26.853Z,100.00
2023-03-08T09:08:34.630Z,100.00
2023-03-08T09:19:04.094Z,100.00
2023-03-08T09:29:09.472Z,100.00
2023-03-08T09:39:15.115Z,100.00
2023-03-08T10:01:39.298Z,100.00
2023-03-08T10:11:48.725Z,100.00
2023-03-08T10:21:56.341Z,100.00
2023-03-08T10:31:59.185Z,100.00
2023-03-08T10:42:16.384Z,100.00
2023-03-08T10:52:26.314Z,100.00
2023-03-08T11:02:30.730Z,100.00
2023-03-08T11:12:33.860Z,100.00
2023-03-08T11:23:00.133Z,100.00
2023-03-08T11:33:22.761Z,100.00
2023-03-08T11:43:54.412Z,100.00
2023-03-08T11:54:09.495Z,100.00
2023-03-08T12:04:19.927Z,100.00
2023-03-08T12:14:28.045Z,100.00
2023-03-08T12:24:48.942Z,100.00
2023-03-08T12:35:04.477Z,100.00
2023-03-08T12:45:31.046Z,100.00
2023-03-08T12:55:34.622Z,100.00
2023-03-08T13:05:40.514Z,100.00
2023-03-08T13:15:43.155Z,100.00
2023-03-08T13:26:00.181Z,100.00
2023-03-08T13:36:05.344Z,100.00
2023-03-08T13:46:16.653Z,100.00
2023-03-08T13:56:24.921Z,100.00
2023-03-08T14:06:31.216Z,100.00
2023-03-08T14:16:37.257Z,100.00
2023-03-08T14:26:42.090Z,100.00
2023-03-08T14:36:53.168Z,100.00
2023-03-08T14:47:00.513Z,100.00
2023-03-08T14:57:17.361Z,100.00
2023-03-08T15:07:24.770Z,100.00
2023-03-08T15:17:28.110Z,100.00
2023-03-08T15:27:34.864Z,100.00
2023-03-08T15:37:37.836Z,100.00
2023-03-08T15:47:43.141Z,100.00
2023-03-08T15:57:46.674Z,100.00
2023-03-08T16:07:55.418Z,100.00
2023-03-08T16:18:25.547Z,100.00
2023-03-08T16:28:33.151Z,100.00
2023-03-08T16:38:36.108Z,100.00
2023-03-08T16:48:40.080Z,100.00
2023-03-08T16:58:42.917Z,100.00
2023-03-08T17:08:48.030Z,100.00
2023-03-08T17:18:52.707Z,100.00
2023-03-08T17:28:57.324Z,100.00
2023-03-08T17:39:00.235Z,100.00
2023-03-08T17:49:04.965Z,100.00
2023-03-08T17:59:13.883Z,100.00
2023-03-08T18:09:18.104Z,100.00
2023-03-08T18:19:21.172Z,100.00
2023-03-08T18:29:25.890Z,100.00
2023-03-08T18:39:54.427Z,100.00
2023-03-08T18:49:58.939Z,100.00
2023-03-08T19:00:03.142Z,100.00
2023-03-08T19:10:14.941Z,100.00
2023-03-08T19:20:19.466Z,100.00
2023-03-08T19:30:26.432Z,100.00
2023-03-08T19:40:29.750Z,100.00
2023-03-08T19:50:33.929Z,100.00
2023-03-08T20:00:36.909Z,100.00
2023-03-08T20:10:41.365Z,100.00
2023-03-08T20:20:47.861Z,100.00
2023-03-08T20:30:52.774Z,100.00
2023-03-08T20:41:02.795Z,100.00
2023-03-08T20:51:10.056Z,100.00
2023-03-08T21:01:15.391Z,100.00
2023-03-08T21:11:21.127Z,100.00
2023-03-08T21:21:27.784Z,100.00
2023-03-08T21:31:34.237Z,100.00
2023-03-08T21:41:40.527Z,100.00
2023-03-08T21:51:46.130Z,100.00
2023-03-08T22:01:50.898Z,100.00
2023-03-08T22:11:56.911Z,100.00
2023-03-08T22:22:00.976Z,100.00
2023-03-08T22:32:09.204Z,100.00
2023-03-08T22:42:12.301Z,100.00
2023-03-08T22:52:16.502Z,100.00
2023-03-08T23:02:19.814Z,100.00
2023-03-08T23:12:25.342Z,100.00
2023-03-08T23:22:29.059Z,100.00
2023-03-08T23:32:34.522Z,100.00
2023-03-08T23:42:38.329Z,100.00
2023-03-08T23:52:43.208Z,100.00
